Time,TemperatureF,DewpointF,PressureIn,WindDirection,WindDirectionDegrees,WindSpeedMPH,WindSpeedGustMPH,Humidity,HourlyPrecipIn,Conditions,Clouds,dailyrainin,SoftwareType,DateUTC
2013-03-25 00:00:00,37.6,37.1,29.37,SSE,157,2.2,-999.0,98,-99.99,,,0.00,Acu-Link.com,2013-03-25 04:00:00,
2013-03-25 00:15:00,37.6,37.1,29.38,SSE,157,3.7,-999.0,98,-99.99,,,0.00,Acu-Link.com,2013-03-25 04:15:00,
2013-03-25 00:30:00,37.6,37.1,29.36,ENE,67,0.0,-999.0,98,-99.99,,,0.00,Acu-Link.com,2013-03-25 04:30:00,
2013-03-25 01:01:00,37.8,37.3,29.37,SE,135,1.1,-999.0,98,-99.99,,,0.00,Acu-Link.com,2013-03-25 05:01:00,
2013-03-25 01:16:00,37.6,37.1,29.37,WNW,292,3.2,-999.0,98,-99.99,,,0.00,Acu-Link.com,2013-03-25 05:16:00,
2013-03-25 01:47:00,36.7,36.2,29.36,NNW,337,0.0,-999.0,98,-99.99,,,0.00,Acu-Link.com,2013-03-25 05:47:00,
2013-03-25 02:02:00,36.7,36.2,29.37,NNW,337,3.2,-999.0,98,-99.99,,,0.00,Acu-Link.com,2013-03-25 06:02:00,
2013-03-25 02:17:00,36.5,36.0,29.36,West,270,1.7,-999.0,98,-99.99,,,0.00,Acu-Link.com,2013-03-25 06:17:00,
2013-03-25 02:32:00,36.3,35.8,29.36,WNW,292,2.2,-999.0,98,-99.99,,,0.00,Acu-Link.com,2013-03-25 06:32:00,
2013-03-25 02:48:00,35.2,34.7,29.36,NNW,337,0.0,-999.0,98,-99.99,,,0.00,Acu-Link.com,2013-03-25 06:48:00,
2013-03-25 03:03:00,32.9,32.4,29.36,WNW,292,4.7,-999.0,98,-99.99,,,0.00,Acu-Link.com,2013-03-25 07:03:00,
2013-03-25 03:18:00,32.7,32.2,29.36,North,0,0.0,-999.0,98,-99.99,,,0.00,Acu-Link.com,2013-03-25 07:18:00,
2013-03-25 03:34:00,32.9,32.4,29.36,North,0,2.7,-999.0,98,-99.99,,,0.00,Acu-Link.com,2013-03-25 07:34:00,
2013-03-25 03:49:00,32.4,31.9,29.35,SW,225,0.0,-999.0,98,-99.99,,,0.00,Acu-Link.com,2013-03-25 07:49:00,
2013-03-25 04:04:00,32.0,31.5,29.35,SW,225,0.0,-999.0,98,-99.99,,,0.00,Acu-Link.com,2013-03-25 08:04:00,
2013-03-25 04:20:00,31.5,31.0,29.36,SW,225,0.0,-999.0,98,-99.99,,,0.00,Acu-Link.com,2013-03-25 08:20:00,
2013-03-25 04:35:00,31.1,30.6,29.36,WNW,292,0.0,-999.0,98,-99.99,,,0.00,Acu-Link.com,2013-03-25 08:35:00,
2013-03-25 04:50:00,30.7,30.2,29.36,South,180,0.0,-999.0,98,-99.99,,,0.00,Acu-Link.com,2013-03-25 08:50:00,
2013-03-25 05:05:00,30.2,29.7,29.37,NNW,337,3.7,-999.0,98,-99.99,,,0.00,Acu-Link.com,2013-03-25 09:05:00,
2013-03-25 05:20:00,30.0,29.5,29.37,North,0,1.7,-999.0,98,-99.99,,,0.00,Acu-Link.com,2013-03-25 09:20:00,
2013-03-25 05:35:00,30.2,29.7,29.38,North,0,2.2,-999.0,98,-99.99,,,0.00,Acu-Link.com,2013-03-25 09:35:00,
2013-03-25 05:50:00,30.2,29.7,29.39,North,0,2.7,-999.0,98,-99.99,,,0.00,Acu-Link.com,2013-03-25 09:50:00,
2013-03-25 06:05:00,29.7,29.2,29.39,West,270,2.7,-999.0,98,-99.99,,,0.00,Acu-Link.com,2013-03-25 10:05:00,
2013-03-25 06:21:00,29.7,29.2,29.39,NW,315,4.2,-999.0,98,-99.99,,,0.00,Acu-Link.com,2013-03-25 10:21:00,
2013-03-25 06:36:00,29.5,29.0,29.39,West,270,4.2,-999.0,98,-99.99,,,0.00,Acu-Link.com,2013-03-25 10:36:00,
2013-03-25 06:51:00,29.3,28.8,29.41,North,0,1.1,-999.0,98,-99.99,,,0.00,Acu-Link.com,2013-03-25 10:51:00,
2013-03-25 07:06:00,29.3,28.8,29.41,North,0,2.7,-999.0,98,-99.99,,,0.00,Acu-Link.com,2013-03-25 11:06:00,
2013-03-25 07:22:00,29.1,28.6,29.41,North,0,3.7,-999.0,98,-99.99,,,0.00,Acu-Link.com,2013-03-25 11:22:00,
2013-03-25 07:37:00,28.6,28.1,29.41,WNW,292,1.1,-999.0,98,-99.99,,,0.00,Acu-Link.com,2013-03-25 11:37:00,
2013-03-25 08:07:00,30.4,29.9,29.43,WNW,292,2.2,-999.0,98,-99.99,,,0.00,Acu-Link.com,2013-03-25 12:07:00,
2013-03-25 08:38:00,32.4,31.9,29.43,WNW,292,3.7,-999.0,98,-99.99,,,0.00,Acu-Link.com,2013-03-25 12:38:00,
2013-03-25 08:53:00,34.0,33.5,29.44,WNW,292,2.2,-999.0,98,-99.99,,,0.00,Acu-Link.com,2013-03-25 12:53:00,
2013-03-25 09:09:00,32.7,32.2,29.43,NNW,337,4.2,-999.0,98,-99.99,,,0.00,Acu-Link.com,2013-03-25 13:09:00,
2013-03-25 09:24:00,32.7,32.2,29.44,WNW,292,5.8,-999.0,98,-99.99,,,0.00,Acu-Link.com,2013-03-25 13:24:00,
2013-03-25 09:39:00,34.2,33.7,29.43,WNW,292,6.3,-999.0,98,-99.99,,,0.00,Acu-Link.com,2013-03-25 13:39:00,
2013-03-25 09:54:00,33.6,33.1,29.43,WNW,292,4.7,-999.0,98,-99.99,,,0.00,Acu-Link.com,2013-03-25 13:54:00,
2013-03-25 10:09:00,35.1,34.6,29.44,WNW,292,6.8,-999.0,98,-99.99,,,0.00,Acu-Link.com,2013-03-25 14:09:00,
2013-03-25 10:25:00,36.0,35.2,29.44,NW,315,4.7,-999.0,97,-99.99,,,0.00,Acu-Link.com,2013-03-25 14:25:00,
2013-03-25 10:40:00,35.4,33.8,29.45,WNW,292,5.8,-999.0,94,-99.99,,,0.00,Acu-Link.com,2013-03-25 14:40:00,
2013-03-25 10:55:00,37.6,32.9,29.44,WNW,292,6.3,-999.0,83,-99.99,,,0.00,Acu-Link.com,2013-03-25 14:55:00,
2013-03-25 11:10:00,38.5,32.2,29.45,NW,315,7.3,-999.0,78,-99.99,,,0.00,Acu-Link.com,2013-03-25 15:10:00,
2013-03-25 11:25:00,39.4,30.1,29.46,NNW,337,10.4,-999.0,69,-99.99,,,0.00,Acu-Link.com,2013-03-25 15:25:00,
2013-03-25 11:40:00,39.0,27.9,29.47,WNW,292,8.9,-999.0,64,-99.99,,,0.00,Acu-Link.com,2013-03-25 15:40:00,
2013-03-25 11:56:00,39.9,30.2,29.46,WNW,292,6.8,-999.0,68,-99.99,,,0.00,Acu-Link.com,2013-03-25 15:56:00,
2013-03-25 12:11:00,40.5,29.3,29.46,WNW,292,7.3,-999.0,64,-99.99,,,0.00,Acu-Link.com,2013-03-25 16:11:00,
2013-03-25 12:26:00,40.3,29.5,29.49,West,270,9.4,-999.0,65,-99.99,,,0.00,Acu-Link.com,2013-03-25 16:26:00,
2013-03-25 12:42:00,40.8,31.1,29.49,North,0,7.3,-999.0,68,-99.99,,,0.00,Acu-Link.com,2013-03-25 16:42:00,
2013-03-25 12:57:00,39.9,28.0,29.48,West,270,7.3,-999.0,62,-99.99,,,0.00,Acu-Link.com,2013-03-25 16:57:00,
2013-03-25 13:12:00,41.4,29.4,29.48,NNW,337,7.3,-999.0,62,-99.99,,,0.00,Acu-Link.com,2013-03-25 17:12:00,
2013-03-25 13:28:00,42.3,30.6,29.49,NNW,337,10.4,-999.0,63,-99.99,,,0.00,Acu-Link.com,2013-03-25 17:28:00,
2013-03-25 13:43:00,38.8,28.4,29.49,NNW,337,6.8,-999.0,66,-99.99,,,0.00,Acu-Link.com,2013-03-25 17:43:00,
2013-03-25 13:58:00,42.4,30.3,29.49,NW,315,6.8,-999.0,62,-99.99,,,0.00,Acu-Link.com,2013-03-25 17:58:00,
2013-03-25 14:13:00,41.4,28.6,29.48,NW,315,12.5,-999.0,60,-99.99,,,0.00,Acu-Link.com,2013-03-25 18:13:00,
2013-03-25 14:29:00,41.9,28.2,29.49,NW,315,6.8,-999.0,58,-99.99,,,0.00,Acu-Link.com,2013-03-25 18:29:00,
2013-03-25 14:44:00,43.0,29.2,29.48,West,270,7.3,-999.0,58,-99.99,,,0.00,Acu-Link.com,2013-03-25 18:44:00,
2013-03-25 14:59:00,39.4,27.5,29.49,West,270,4.2,-999.0,62,-99.99,,,0.00,Acu-Link.com,2013-03-25 18:59:00,
2013-03-25 15:14:00,39.9,27.6,29.49,NW,315,10.4,-999.0,61,-99.99,,,0.00,Acu-Link.com,2013-03-25 19:14:00,
2013-03-25 15:29:00,40.1,28.1,29.49,WNW,292,8.3,-999.0,62,-99.99,,,0.00,Acu-Link.com,2013-03-25 19:29:00,
2013-03-25 15:44:00,41.2,28.4,29.49,WNW,292,10.4,-999.0,60,-99.99,,,0.00,Acu-Link.com,2013-03-25 19:44:00,
2013-03-25 15:59:00,40.3,27.5,29.49,WNW,292,8.9,-999.0,60,-99.99,,,0.00,Acu-Link.com,2013-03-25 19:59:00,
2013-03-25 16:15:00,39.2,28.1,29.50,NW,315,7.3,-999.0,64,-99.99,,,0.00,Acu-Link.com,2013-03-25 20:15:00,
2013-03-25 16:30:00,40.1,26.9,29.50,NNW,337,7.3,-999.0,59,-99.99,,,0.00,Acu-Link.com,2013-03-25 20:30:00,
2013-03-25 16:45:00,37.0,25.6,29.51,NNW,337,6.8,-999.0,63,-99.99,,,0.00,Acu-Link.com,2013-03-25 20:45:00,
2013-03-25 17:01:00,36.0,26.1,29.51,WNW,292,7.3,-999.0,67,-99.99,,,0.00,Acu-Link.com,2013-03-25 21:01:00,
2013-03-25 17:31:00,35.1,26.3,29.52,NW,315,8.9,-999.0,70,-99.99,,,0.00,Acu-Link.com,2013-03-25 21:31:00,
2013-03-25 17:47:00,34.9,25.8,29.53,WSW,247,5.3,-999.0,69,-99.99,,,0.00,Acu-Link.com,2013-03-25 21:47:00,
2013-03-25 18:17:00,33.6,24.5,29.55,NNW,337,6.3,-999.0,69,-99.99,,,0.00,Acu-Link.com,2013-03-25 22:17:00,
2013-03-25 18:32:00,33.3,24.9,29.54,NNW,337,6.8,-999.0,71,-99.99,,,0.00,Acu-Link.com,2013-03-25 22:32:00,
2013-03-25 18:47:00,32.4,24.1,29.55,NW,315,9.4,-999.0,71,-99.99,,,0.00,Acu-Link.com,2013-03-25 22:47:00,
2013-03-25 19:17:00,31.1,24.1,29.59,NNW,337,6.3,-999.0,75,-99.99,,,0.00,Acu-Link.com,2013-03-25 23:17:00,
2013-03-25 19:33:00,31.1,25.7,29.59,WNW,292,2.7,-999.0,80,-99.99,,,0.00,Acu-Link.com,2013-03-25 23:33:00,
2013-03-25 19:48:00,29.7,25.2,29.60,WNW,292,4.7,-999.0,83,-99.99,,,0.00,Acu-Link.com,2013-03-25 23:48:00,
2013-03-25 20:03:00,29.5,26.7,29.61,WNW,292,5.3,-999.0,89,-99.99,,,0.00,Acu-Link.com,2013-03-26 00:03:00,
2013-03-25 20:18:00,29.5,25.8,29.61,WNW,292,5.3,-999.0,86,-99.99,,,0.00,Acu-Link.com,2013-03-26 00:18:00,
2013-03-25 20:33:00,28.9,24.1,29.62,WNW,292,5.3,-999.0,82,-99.99,,,0.00,Acu-Link.com,2013-03-26 00:33:00,
2013-03-25 20:48:00,28.8,25.4,29.62,NW,315,3.7,-999.0,87,-99.99,,,0.00,Acu-Link.com,2013-03-26 00:48:00,
2013-03-25 21:03:00,28.2,25.7,29.62,WNW,292,5.3,-999.0,90,-99.99,,,0.00,Acu-Link.com,2013-03-26 01:03:00,
2013-03-25 21:18:00,28.2,25.4,29.62,North,0,4.7,-999.0,89,-99.99,,,0.00,Acu-Link.com,2013-03-26 01:18:00,
2013-03-25 21:34:00,28.0,26.0,29.64,WNW,292,3.2,-999.0,92,-99.99,,,0.00,Acu-Link.com,2013-03-26 01:34:00,
2013-03-25 21:49:00,27.9,25.9,29.65,West,270,5.3,-999.0,92,-99.99,,,0.00,Acu-Link.com,2013-03-26 01:49:00,
2013-03-25 22:04:00,28.2,25.7,29.66,WSW,247,2.7,-999.0,90,-99.99,,,0.00,Acu-Link.com,2013-03-26 02:04:00,
2013-03-25 22:19:00,28.6,26.6,29.65,WNW,292,5.3,-999.0,92,-99.99,,,0.00,Acu-Link.com,2013-03-26 02:19:00,
2013-03-25 22:34:00,28.4,27.9,29.69,NNW,337,4.7,-999.0,98,-99.99,,,0.00,Acu-Link.com,2013-03-26 02:34:00,
2013-03-25 22:50:00,28.4,26.6,29.67,WNW,292,7.8,-999.0,93,-99.99,,,0.00,Acu-Link.com,2013-03-26 02:50:00,
2013-03-25 23:05:00,27.5,27.0,29.68,NW,315,7.8,-999.0,98,-99.99,,,0.00,Acu-Link.com,2013-03-26 03:05:00,
2013-03-25 23:20:00,27.7,27.2,29.68,NW,315,5.3,-999.0,98,-99.99,,,0.00,Acu-Link.com,2013-03-26 03:20:00,
2013-03-25 23:35:00,28.0,27.5,29.69,NW,315,8.3,-999.0,98,-99.99,,,0.00,Acu-Link.com,2013-03-26 03:35:00,
2013-03-25 23:50:00,28.2,27.7,29.69,WNW,292,5.3,-999.0,98,-99.99,,,0.00,Acu-Link.com,2013-03-26 03:50:00,